Time;durP1;ratioP1;P1;durP2;ratioP2;P2;SDS_P1;SDS_P2;PMS_P1;PMS_P2;Temp;Humidity;BMP_temperature;BMP_pressure;BME280_temperature;BME280_humidity;BME280_pressure;Samples;Min_cycle;Max_cycle;Signal;HPM_P1;HPM_P2
2022/01/31 00:01:26;;;;;;;21.25;7.60;;;;;;;3.08;75.00;101508.00;4993099;28;20117;-74
2022/01/31 00:03:51;;;;;;;16.25;8.77;;;;;;;3.10;75.66;101491.69;5003613;28;20439;-74
2022/01/31 00:06:17;;;;;;;23.90;7.25;;;;;;;3.12;75.25;101463.25;4993094;28;20080;-74
2022/01/31 00:08:43;;;;;;;20.75;6.43;;;;;;;3.12;75.45;101448.56;4992327;28;20018;-73
2022/01/31 00:11:08;;;;;;;12.43;6.78;;;;;;;3.13;75.21;101418.38;4980628;28;20393;-73
2022/01/31 00:13:42;;;;;;;22.02;7.18;;;;;;;3.12;75.53;101420.09;4988693;28;20041;-74
2022/01/31 00:16:13;;;;;;;18.58;7.63;;;;;;;3.14;75.93;101419.25;5006420;28;20045;-74
2022/01/31 00:18:40;;;;;;;;;;;;;;;3.18;75.02;101411.63;4982415;28;20509;-74
2022/01/31 00:21:06;;;;;;;14.05;6.72;;;;;;;3.16;75.39;101412.41;4997051;28;20377;-73
2022/01/31 00:23:31;;;;;;;15.35;8.07;;;;;;;3.16;75.92;101407.22;4980628;28;20038;-74
2022/01/31 00:25:57;;;;;;;16.20;7.68;;;;;;;3.18;75.14;101387.44;4996269;28;20030;-74
2022/01/31 00:28:24;;;;;;;19.38;7.18;;;;;;;3.18;75.79;101379.66;4972645;28;20026;-75
2022/01/31 00:30:50;;;;;;;17.02;7.32;;;;;;;3.20;75.64;101384.03;4973935;28;20049;-74
2022/01/31 00:33:15;;;;;;;12.27;7.38;;;;;;;3.21;75.69;101349.53;4995743;28;20080;-74
2022/01/31 00:35:41;;;;;;;22.33;7.95;;;;;;;3.21;76.44;101353.84;4996270;28;20401;-75
2022/01/31 00:38:09;;;;;;;18.20;8.98;;;;;;;3.22;76.29;101334.84;5012891;28;20413;-74
2022/01/31 00:40:35;;;;;;;21.52;8.82;;;;;;;3.25;76.43;101315.09;4993439;28;20490;-74
2022/01/31 00:43:00;;;;;;;27.85;7.85;;;;;;;3.24;76.19;101304.72;4978314;28;20117;-73
2022/01/31 00:45:28;;;;;;;19.25;6.90;;;;;;;3.26;76.12;101282.31;4986211;28;20122;-72
2022/01/31 00:48:05;;;;;;;14.15;6.88;;;;;;;3.26;76.61;101277.13;4996312;28;20042;-74
2022/01/31 00:50:38;;;;;;;17.60;7.47;;;;;;;3.29;76.66;101279.81;5031630;28;20447;-74
2022/01/31 00:53:04;;;;;;;22.52;7.05;;;;;;;3.29;77.17;101264.28;5013541;28;20498;-74
2022/01/31 00:55:29;;;;;;;22.98;7.43;;;;;;;3.27;78.17;101253.84;5012077;28;20033;-73
2022/01/31 00:57:55;;;;;;;28.98;7.65;;;;;;;3.26;78.91;101238.28;4995780;28;20574;-73
2022/01/31 01:00:20;;;;;;;30.02;7.43;;;;;;;3.21;79.59;101226.94;4995855;28;20036;-73
2022/01/31 01:02:48;;;;;;;30.73;8.73;;;;;;;3.12;81.39;101238.81;5002738;28;20426;-72
2022/01/31 01:05:15;;;;;;;36.65;8.88;;;;;;;3.11;80.57;101220.66;4996247;28;20034;-73
2022/01/31 01:07:45;;;;;;;31.23;8.13;;;;;;;3.06;81.32;101196.34;4995907;28;20034;-71
2022/01/31 01:10:15;;;;;;;21.27;7.82;;;;;;;3.07;82.11;101205.88;4995174;28;20034;-71
2022/01/31 01:12:41;;;;;;;20.93;7.97;;;;;;;3.03;81.99;101183.31;4996261;28;20030;-74
2022/01/31 01:15:06;;;;;;;24.23;7.47;;;;;;;3.03;81.95;101188.50;4993629;28;20470;-77
2022/01/31 01:17:33;;;;;;;15.73;7.90;;;;;;;3.03;82.77;101178.16;4974900;28;20124;-74
2022/01/31 01:19:58;;;;;;;18.58;7.60;;;;;;;3.01;82.93;101170.34;4993049;28;20030;-75
2022/01/31 01:22:26;;;;;;;18.23;6.70;;;;;;;3.02;83.33;101166.94;4978766;28;20095;-74
2022/01/31 01:24:51;;;;;;;15.70;7.35;;;;;;;3.01;84.14;101144.47;4995201;28;20030;-75
2022/01/31 01:27:20;;;;;;;14.85;7.40;;;;;;;2.98;84.91;101148.69;5011704;28;20112;-72
2022/01/31 01:29:46;;;;;;;22.88;6.85;;;;;;;2.98;84.97;101130.56;4979437;28;20052;-71
2022/01/31 01:32:12;;;;;;;20.38;7.35;;;;;;;2.99;84.65;101121.94;4994251;28;20038;-75
2022/01/31 01:34:38;;;;;;;17.58;7.20;;;;;;;2.98;85.60;101108.13;5011854;28;20056;-72
2022/01/31 01:37:05;;;;;;;20.25;8.27;;;;;;;2.98;85.82;101087.44;5011903;28;20037;-71
2022/01/31 01:39:34;;;;;;;24.77;8.15;;;;;;;2.97;85.59;101090.84;4994574;28;20410;-70
2022/01/31 01:42:00;;;;;;;21.60;8.10;;;;;;;3.01;85.86;101081.44;4996409;28;20037;-72
2022/01/31 01:44:50;;;;;;;20.52;7.32;;;;;;;3.02;85.42;101065.94;5009313;28;20149;-70
2022/01/31 01:47:22;;;;;;;16.52;6.97;;;;;;;3.03;86.18;101051.28;5008437;28;20030;-72
2022/01/31 01:49:49;;;;;;;16.05;7.38;;;;;;;3.04;86.48;101061.66;5004251;28;20018;-72
2022/01/31 01:52:16;;;;;;;26.10;7.57;;;;;;;3.06;86.75;101066.88;4990955;28;20040;-72
2022/01/31 01:54:42;;;;;;;15.95;6.65;;;;;;;3.07;87.39;101050.50;5006652;28;20528;-73
2022/01/31 01:57:10;;;;;;;16.35;7.43;;;;;;;3.07;86.86;101029.81;5011525;28;20030;-73
2022/01/31 01:59:37;;;;;;;15.73;7.30;;;;;;;3.11;86.94;101029.03;4976827;28;20466;-73
2022/01/31 02:02:04;;;;;;;14.40;6.68;;;;;;;3.11;87.57;101006.59;4974089;28;20034;-72
2022/01/31 02:04:32;;;;;;;15.00;5.38;;;;;;;3.15;87.81;100999.78;4977937;28;20033;-72
2022/01/31 02:06:58;;;;;;;11.88;5.68;;;;;;;3.16;87.26;100992.88;5010841;28;20021;-72
2022/01/31 02:09:26;;;;;;;16.00;6.32;;;;;;;3.19;87.63;100987.75;5010250;28;20034;-71
2022/01/31 02:11:55;;;;;;;21.90;7.85;;;;;;;3.21;87.47;100970.53;4995311;28;20029;-72
2022/01/31 02:14:24;;;;;;;18.15;7.25;;;;;;;3.25;87.39;100962.00;4995522;28;20121;-73
2022/01/31 02:16:53;;;;;;;11.75;6.50;;;;;;;3.27;87.94;100952.53;5011094;28;20509;-73
2022/01/31 02:19:25;;;;;;;17.73;7.22;;;;;;;3.29;87.51;100943.94;5010203;28;20022;-71
2022/01/31 02:21:53;;;;;;;18.65;6.82;;;;;;;3.32;88.36;100943.16;4994778;28;20041;-72
2022/01/31 02:24:19;;;;;;;16.15;6.82;;;;;;;3.34;87.80;100933.69;5011895;28;20034;-72
2022/01/31 02:26:45;;;;;;;12.88;6.07;;;;;;;3.37;88.79;100935.47;4982190;28;20034;-72
2022/01/31 02:29:15;;;;;;;21.63;6.00;;;;;;;3.38;88.29;100932.91;5026641;28;20022;-73
2022/01/31 02:31:45;;;;;;;;;;;;;;;3.43;86.87;100932.97;5009672;28;20141;-74
2022/01/31 02:34:13;;;;;;;20.25;7.50;;;;;;;3.44;88.25;100922.63;4994539;28;20004;-73
2022/01/31 02:36:39;;;;;;;8.43;5.65;;;;;;;3.45;89.13;100934.75;4990790;28;20042;-73
2022/01/31 02:39:06;;;;;;;23.85;7.65;;;;;;;3.51;88.68;100935.72;5005997;28;20022;-74
2022/01/31 02:41:32;;;;;;;13.32;6.03;;;;;;;3.52;89.10;100927.09;5006501;28;20025;-73
2022/01/31 02:43:59;;;;;;;17.25;6.95;;;;;;;3.53;88.68;100921.94;4994112;28;20092;-74
2022/01/31 02:46:26;;;;;;;10.98;5.63;;;;;;;3.58;89.00;100909.09;4978661;28;20068;-75
2022/01/31 02:48:56;;;;;;;14.93;6.28;;;;;;;3.64;88.98;100904.00;4968867;28;20030;-73
2022/01/31 02:51:24;;;;;;;11.30;6.55;;;;;;;3.67;89.21;100904.06;4978400;28;20062;-71
2022/01/31 02:53:50;;;;;;;6.68;5.43;;;;;;;3.71;89.29;100894.63;4987042;28;20125;-72
2022/01/31 02:56:15;;;;;;;6.85;4.43;;;;;;;3.72;89.59;100870.44;5004337;28;20113;-73
2022/01/31 02:58:41;;;;;;;8.75;4.70;;;;;;;3.76;89.49;100862.72;4992182;28;20073;-73
2022/01/31 03:01:07;;;;;;;7.80;5.43;;;;;;;3.81;89.24;100876.66;4992462;28;20383;-71
2022/01/31 03:03:32;;;;;;;13.05;5.82;;;;;;;3.85;88.74;100863.72;4977685;28;20330;-73
2022/01/31 03:05:58;;;;;;;13.45;5.82;;;;;;;3.86;89.13;100858.56;5009654;28;20033;-72
2022/01/31 03:08:24;;;;;;;10.35;5.95;;;;;;;3.88;89.35;100856.00;4993584;28;20030;-72
2022/01/31 03:10:50;;;;;;;10.73;5.43;;;;;;;3.91;89.13;100863.84;5002575;28;20077;-73
2022/01/31 03:13:16;;;;;;;6.63;5.20;;;;;;;3.94;89.73;100850.94;5009234;28;20026;-72
2022/01/31 03:15:41;;;;;;;9.48;5.57;;;;;;;3.98;89.29;100848.41;4993028;28;20032;-71
2022/01/31 03:18:08;;;;;;;9.90;6.20;;;;;;;4.02;89.84;100849.31;4993300;28;20042;-73
2022/01/31 03:20:34;;;;;;;10.07;5.90;;;;;;;4.08;89.85;100853.72;4993746;28;20100;-74
2022/01/31 03:23:02;;;;;;;13.05;5.90;;;;;;;4.12;89.87;100850.31;4993387;28;20038;-72
2022/01/31 03:25:30;;;;;;;12.23;6.25;;;;;;;4.18;89.38;100847.84;5007928;28;20149;-73
2022/01/31 03:27:57;;;;;;;10.82;6.05;;;;;;;4.24;89.65;100839.25;5010076;28;20494;-75
2022/01/31 03:30:24;;;;;;;10.13;4.90;;;;;;;4.26;89.97;100833.22;4991916;28;20096;-75
2022/01/31 03:32:52;;;;;;;18.88;5.50;;;;;;;4.31;89.92;100841.97;5004677;28;20135;-73
2022/01/31 03:35:18;;;;;;;22.30;5.57;;;;;;;4.37;89.46;100827.31;5007243;28;20065;-73
2022/01/31 03:37:44;;;;;;;23.52;6.43;;;;;;;4.40;89.07;100820.47;5017612;28;20026;-73
2022/01/31 03:40:10;;;;;;;22.65;5.25;;;;;;;4.46;89.35;100814.47;5008906;28;20036;-73
2022/01/31 03:42:37;;;;;;;17.23;5.25;;;;;;;4.49;88.99;100824.91;5009841;28;20022;-74
2022/01/31 03:45:07;;;;;;;14.15;4.22;;;;;;;4.54;88.83;100811.97;4992356;28;20036;-74
2022/01/31 03:47:43;;;;;;;14.38;5.10;;;;;;;4.58;88.73;100812.00;5009681;28;20101;-74
2022/01/31 03:50:08;;;;;;;15.20;5.15;;;;;;;4.63;88.64;100801.72;5003766;28;20035;-74
2022/01/31 03:52:36;;;;;;;17.88;4.75;;;;;;;4.68;87.73;100793.13;4991093;28;20273;-74
2022/01/31 03:55:04;;;;;;;14.50;4.70;;;;;;;4.74;87.59;100802.72;5008788;28;20025;-77
2022/01/31 03:57:31;;;;;;;11.48;4.47;;;;;;;4.77;87.25;100804.44;4999999;28;20039;-74
2022/01/31 03:59:56;;;;;;;19.58;4.93;;;;;;;4.79;87.35;100811.41;4992897;28;20493;-72
2022/01/31 04:02:24;;;;;;;15.50;4.88;;;;;;;4.82;86.77;100811.44;4988364;28;20030;-74
2022/01/31 04:04:50;;;;;;;15.00;4.53;;;;;;;4.83;86.88;100805.41;4993115;28;20033;-72
2022/01/31 04:07:16;;;;;;;30.35;4.85;;;;;;;4.85;86.15;100798.50;5009669;28;20026;-73
2022/01/31 04:09:42;;;;;;;21.73;4.32;;;;;;;4.85;85.47;100788.09;4973993;28;20164;-74
2022/01/31 04:12:08;;;;;;;16.23;5.05;;;;;;;4.89;85.46;100798.56;4974201;28;20034;-71
2022/01/31 04:14:36;;;;;;;15.18;3.67;;;;;;;4.89;85.29;100785.56;4976586;28;20193;-72
2022/01/31 04:17:07;;;;;;;13.23;4.25;;;;;;;4.92;84.72;100806.38;4992474;28;20069;-72
2022/01/31 04:19:32;;;;;;;14.43;3.60;;;;;;;4.95;84.57;100803.81;5008260;28;20036;-70
2022/01/31 04:21:58;;;;;;;15.88;4.72;;;;;;;4.97;84.53;100799.47;4985442;28;20030;-73
2022/01/31 04:24:30;;;;;;;24.08;3.92;;;;;;;5.00;84.48;100803.00;5009116;28;20429;-73
2022/01/31 04:26:59;;;;;;;17.65;4.15;;;;;;;5.00;84.48;100786.56;4991174;28;20149;-72
2022/01/31 04:29:28;;;;;;;20.98;4.80;;;;;;;5.01;83.68;100781.38;5008494;28;20061;-73
2022/01/31 04:31:54;;;;;;;12.98;3.63;;;;;;;5.02;83.57;100792.63;5008805;28;20033;-74
2022/01/31 04:34:23;;;;;;;13.35;4.28;;;;;;;5.05;83.09;100786.59;5008971;28;20042;-74
2022/01/31 04:36:49;;;;;;;11.73;3.17;;;;;;;5.04;82.54;100788.28;5008943;28;20058;-75
2022/01/31 04:39:19;;;;;;;17.83;3.95;;;;;;;5.05;82.62;100790.03;5025342;28;20037;-73
2022/01/31 04:41:46;;;;;;;19.05;3.38;;;;;;;5.02;82.47;100785.69;5025722;28;20037;-74
2022/01/31 04:44:12;;;;;;;17.13;3.42;;;;;;;5.03;81.58;100792.63;5001497;28;20025;-73
2022/01/31 04:46:40;;;;;;;14.70;3.35;;;;;;;5.04;80.89;100777.91;4977184;28;20033;-76
2022/01/31 04:49:07;;;;;;;10.23;3.53;;;;;;;5.03;81.10;100786.59;4970764;28;20513;-73
2022/01/31 04:51:35;;;;;;;12.43;3.88;;;;;;;5.03;80.70;100783.97;4980979;28;20030;-72
2022/01/31 04:54:01;;;;;;;15.65;3.42;;;;;;;5.04;80.66;100783.09;4984641;28;20088;-73
2022/01/31 04:56:31;;;;;;;16.77;3.30;;;;;;;5.02;80.79;100784.81;5011496;28;20460;-74
2022/01/31 04:58:56;;;;;;;15.20;3.58;;;;;;;5.00;80.45;100783.97;5012819;28;20037;-73
2022/01/31 05:01:23;;;;;;;11.88;3.38;;;;;;;4.97;80.55;100770.91;5010421;28;20038;-72
2022/01/31 05:03:49;;;;;;;10.40;3.92;;;;;;;4.94;80.09;100771.78;5010738;28;20026;-73
2022/01/31 05:06:18;;;;;;;17.75;3.42;;;;;;;4.95;79.72;100775.22;4975733;28;20034;-74
2022/01/31 05:08:43;;;;;;;17.45;3.10;;;;;;;4.93;79.78;100774.31;4992376;28;21915;-73
2022/01/31 05:11:11;;;;;;;15.70;3.47;;;;;;;4.91;79.45;100765.66;4995811;28;20044;-73
2022/01/31 05:13:37;;;;;;;8.70;2.60;;;;;;;4.89;79.22;100763.06;5010471;28;20048;-73
2022/01/31 05:16:06;;;;;;;10.65;2.55;;;;;;;4.87;79.45;100757.00;5027259;28;20026;-74
2022/01/31 05:18:33;;;;;;;21.90;3.72;;;;;;;4.88;79.33;100750.06;5011692;28;20037;-74
2022/01/31 05:20:58;;;;;;;16.88;3.55;;;;;;;4.85;78.70;100746.56;5011761;28;20060;-73
2022/01/31 05:23:24;;;;;;;12.25;3.55;;;;;;;4.85;78.61;100745.69;4971756;28;20474;-73
2022/01/31 05:25:49;;;;;;;20.77;3.83;;;;;;;4.85;78.21;100743.97;4994220;28;20413;-76
2022/01/31 05:28:15;;;;;;;21.33;4.15;;;;;;;4.85;77.73;100736.19;4979265;28;20367;-75
2022/01/31 05:30:41;;;;;;;12.75;3.33;;;;;;;4.87;77.60;100736.22;4979261;28;20074;-74
2022/01/31 05:33:06;;;;;;;10.25;2.45;;;;;;;4.88;77.83;100729.28;4995872;28;20030;-73
2022/01/31 05:35:34;;;;;;;17.77;4.22;;;;;;;4.85;77.45;100724.94;5024360;28;20129;-74
2022/01/31 05:38:00;;;;;;;18.15;3.45;;;;;;;4.85;77.41;100711.94;5008951;28;20129;-73
2022/01/31 05:40:25;;;;;;;10.85;2.83;;;;;;;4.84;77.95;100713.69;4986448;28;20097;-73
2022/01/31 05:42:50;;;;;;;9.75;3.30;;;;;;;4.83;77.38;100709.34;4995570;28;20041;-74
2022/01/31 05:45:16;;;;;;;11.82;2.42;;;;;;;4.85;77.47;100701.56;4979097;28;20120;-75
2022/01/31 05:47:42;;;;;;;15.85;3.47;;;;;;;4.83;78.02;100709.34;4995152;28;20037;-72
2022/01/31 05:50:08;;;;;;;13.88;3.03;;;;;;;4.82;78.20;100698.94;5011513;28;20167;-76
2022/01/31 05:52:33;;;;;;;17.45;3.38;;;;;;;4.78;79.07;100700.63;4978557;28;20437;-75
2022/01/31 05:54:59;;;;;;;14.27;3.25;;;;;;;4.75;79.79;100710.13;5008741;28;20044;-73
2022/01/31 05:57:28;;;;;;;10.13;3.20;;;;;;;4.66;80.84;100734.25;5010783;28;20034;-75
2022/01/31 05:59:53;;;;;;;12.02;3.28;;;;;;;4.58;81.21;100738.50;4994927;28;20565;-74
2022/01/31 06:02:19;;;;;;;6.97;2.78;;;;;;;4.53;81.62;100753.16;4979109;28;20030;-75
2022/01/31 06:04:44;;;;;;;7.28;1.92;;;;;;;4.38;81.95;100759.88;4994128;28;20038;-74
2022/01/31 06:07:10;;;;;;;5.47;1.92;;;;;;;4.19;82.92;100750.13;4994153;28;20034;-77
2022/01/31 06:09:38;;;;;;;12.70;2.78;;;;;;;4.08;83.20;100749.97;4993985;28;20026;-74
2022/01/31 06:12:04;;;;;;;5.95;2.17;;;;;;;3.99;83.83;100761.09;4995257;28;20026;-73
2022/01/31 06:14:34;;;;;;;7.00;1.80;;;;;;;3.92;84.76;100748.91;4990699;28;20062;-74
2022/01/31 06:17:00;;;;;;;12.48;2.95;;;;;;;3.90;84.33;100742.84;4987918;28;20037;-73
2022/01/31 06:19:25;;;;;;;12.23;2.15;;;;;;;3.87;84.39;100716.88;4994950;28;20067;-75
2022/01/31 06:21:51;;;;;;;9.88;2.92;;;;;;;3.85;84.34;100740.19;4978247;28;20034;-73
2022/01/31 06:24:19;;;;;;;8.68;2.72;;;;;;;3.84;84.09;100734.97;4988457;28;20159;-73
2022/01/31 06:26:44;;;;;;;15.45;2.67;;;;;;;3.86;83.82;100734.13;5011166;28;20044;-72
2022/01/31 06:29:10;;;;;;;12.93;3.25;;;;;;;3.86;84.31;100735.88;4976729;28;20038;-73
2022/01/31 06:31:35;;;;;;;9.85;2.72;;;;;;;3.86;84.43;100733.28;5010715;28;20034;-73
2022/01/31 06:34:03;;;;;;;10.60;2.70;;;;;;;3.87;84.98;100722.06;4994340;28;20061;-72
2022/01/31 06:36:29;;;;;;;23.17;4.07;;;;;;;3.87;84.48;100712.56;5010332;28;20390;-72
2022/01/31 06:39:00;;;;;;;15.07;3.10;;;;;;;3.89;84.17;100720.34;4985975;28;20021;-73
2022/01/31 06:41:26;;;;;;;18.98;3.38;;;;;;;3.91;84.47;100721.25;5010169;28;20056;-73
2022/01/31 06:43:52;;;;;;;13.25;3.35;;;;;;;3.90;84.55;100711.72;4993463;28;20038;-73
2022/01/31 06:46:21;;;;;;;16.42;2.67;;;;;;;3.89;84.59;100718.63;5007041;28;20068;-72
2022/01/31 06:48:47;;;;;;;13.68;3.38;;;;;;;3.93;83.89;100710.03;4991672;28;20109;-74
2022/01/31 06:51:13;;;;;;;15.10;3.22;;;;;;;3.93;84.12;100720.41;5001796;28;20037;-72
2022/01/31 06:53:38;;;;;;;19.63;3.88;;;;;;;3.95;83.88;100707.47;5008977;28;20029;-74
2022/01/31 06:56:06;;;;;;;16.13;3.33;;;;;;;3.94;83.75;100716.09;4992462;28;20041;-74
2022/01/31 06:58:31;;;;;;;10.45;2.85;;;;;;;3.95;84.18;100710.06;4977067;28;20070;-74
2022/01/31 07:00:58;;;;;;;14.57;3.10;;;;;;;3.95;83.23;100704.88;4991670;28;20038;-74
2022/01/31 07:03:24;;;;;;;16.20;3.50;;;;;;;3.94;83.95;100711.78;5026226;28;20026;-72
2022/01/31 07:05:50;;;;;;;14.98;3.70;;;;;;;3.94;83.84;100718.69;5026808;28;20032;-73
2022/01/31 07:08:16;;;;;;;24.55;4.10;;;;;;;3.99;83.47;100724.81;4993725;28;20057;-74
2022/01/31 07:10:50;;;;;;;22.17;5.35;;;;;;;3.99;83.51;100715.31;5005730;28;20045;-74
2022/01/31 07:16:00;;;;;;;17.42;4.78;;;;;;;3.97;83.69;100719.59;5010177;28;20038;-74
2022/01/31 07:18:26;;;;;;;14.45;4.05;;;;;;;3.96;83.84;100724.75;5008773;28;20060;-74
2022/01/31 07:20:53;;;;;;;15.05;3.83;;;;;;;3.96;83.33;100698.84;5009561;28;20354;-74
2022/01/31 07:23:26;;;;;;;17.58;3.70;;;;;;;3.96;83.66;100725.63;4977321;28;20898;-73
2022/01/31 07:25:51;;;;;;;14.60;3.85;;;;;;;3.97;84.00;100727.38;5007078;28;20041;-75
2022/01/31 07:28:17;;;;;;;23.38;4.57;;;;;;;3.97;83.81;100736.88;4990295;28;20029;-74
2022/01/31 07:30:46;;;;;;;17.80;3.67;;;;;;;3.95;83.70;100760.19;4965942;28;20038;-73
2022/01/31 07:33:13;;;;;;;22.52;4.32;;;;;;;3.92;85.09;100761.88;5015834;28;20040;-75
2022/01/31 07:35:40;;;;;;;19.20;4.03;;;;;;;3.88;85.52;100752.28;4993217;28;20128;-74
2022/01/31 07:38:10;;;;;;;23.00;5.35;;;;;;;3.86;86.06;100746.22;5030396;28;20041;-73
2022/01/31 07:40:36;;;;;;;20.20;4.67;;;;;;;3.81;85.41;100760.00;4984832;28;20045;-75
2022/01/31 07:43:02;;;;;;;20.50;4.78;;;;;;;3.77;86.24;100755.59;4976981;28;20474;-73
2022/01/31 07:45:28;;;;;;;10.55;3.65;;;;;;;3.74;85.68;100754.72;4986320;28;20022;-74
2022/01/31 07:47:53;;;;;;;12.02;3.65;;;;;;;3.72;86.16;100744.31;4976730;28;20121;-76
2022/01/31 07:50:19;;;;;;;14.20;3.95;;;;;;;3.71;86.41;100755.53;5008947;28;20045;-75
2022/01/31 07:52:45;;;;;;;19.00;3.97;;;;;;;3.68;86.07;100724.38;4993589;28;20475;-73
2022/01/31 07:55:12;;;;;;;16.98;3.75;;;;;;;3.68;86.32;100734.75;5008805;28;20462;-72
2022/01/31 07:57:43;;;;;;;11.57;3.75;;;;;;;3.70;86.13;100743.41;4974537;28;20038;-73
2022/01/31 08:00:10;;;;;;;15.93;4.57;;;;;;;3.70;85.75;100732.19;4992499;28;20037;-74
2022/01/31 08:02:35;;;;;;;17.10;4.50;;;;;;;3.71;85.79;100734.78;5008974;28;20026;-77
2022/01/31 08:05:03;;;;;;;18.45;4.05;;;;;;;3.72;85.90;100744.31;4986224;28;20040;-74
2022/01/31 08:07:29;;;;;;;28.10;4.75;;;;;;;3.75;85.79;100735.69;5008977;28;20061;-76
2022/01/31 08:09:54;;;;;;;22.27;4.75;;;;;;;3.76;85.59;100740.03;4989771;28;20446;-74
2022/01/31 08:12:20;;;;;;;28.25;4.15;;;;;;;3.76;85.98;100735.72;4992948;28;20053;-73
2022/01/31 08:14:48;;;;;;;23.10;4.50;;;;;;;3.76;86.34;100730.53;4983913;28;20035;-72
2022/01/31 08:17:13;;;;;;;23.40;4.13;;;;;;;3.78;86.23;100744.41;4972177;28;20137;-72
2022/01/31 08:19:41;;;;;;;18.63;4.32;;;;;;;3.79;85.84;100740.97;4989338;28;20116;-74
2022/01/31 08:22:07;;;;;;;28.23;5.60;;;;;;;3.81;86.05;100749.63;4989427;28;20117;-72
2022/01/31 08:24:32;;;;;;;25.55;5.57;;;;;;;3.88;84.90;100742.81;4975803;28;20125;-74
2022/01/31 08:26:58;;;;;;;25.00;5.22;;;;;;;3.89;85.48;100762.69;4968730;28;20034;-74
2022/01/31 08:29:31;;;;;;;34.42;5.15;;;;;;;3.90;85.33;100758.41;4993312;28;20478;-74
2022/01/31 08:32:05;;;;;;;19.75;5.22;;;;;;;3.90;85.11;100751.47;4980785;28;20044;-77
2022/01/31 08:37:14;;;;;;;24.65;4.72;;;;;;;3.91;86.01;100754.97;5012446;28;20052;-76
2022/01/31 08:39:41;;;;;;;15.23;4.20;;;;;;;3.93;85.19;100750.66;5012138;28;20029;-78
2022/01/31 08:42:09;;;;;;;25.05;5.75;;;;;;;3.93;84.59;100717.81;4997094;28;20140;-76
2022/01/31 08:44:35;;;;;;;15.30;4.90;;;;;;;3.95;85.06;100738.56;5002810;28;20057;-75
2022/01/31 08:47:00;;;;;;;21.95;6.47;;;;;;;3.95;85.87;100755.03;4977030;28;20393;-74
2022/01/31 08:49:26;;;;;;;17.00;3.83;;;;;;;3.98;85.09;100742.09;5012125;28;20068;-75
2022/01/31 08:51:51;;;;;;;16.95;4.68;;;;;;;4.00;85.30;100752.47;4996542;28;20464;-75
2022/01/31 08:54:20;;;;;;;20.10;4.32;;;;;;;4.04;85.08;100758.56;4979508;28;20034;-76
2022/01/31 08:56:46;;;;;;;30.05;5.15;;;;;;;4.03;85.34;100741.28;4996016;28;20034;-76
2022/01/31 08:59:18;;;;;;;20.88;5.30;;;;;;;4.05;84.79;100740.47;5006454;28;20498;-75
2022/01/31 09:01:54;;;;;;;27.30;6.10;;;;;;;4.08;84.42;100748.28;4995563;28;20045;-72
2022/01/31 09:04:33;;;;;;;21.85;5.32;;;;;;;4.11;84.05;100755.22;5009187;28;20044;-74
2022/01/31 09:06:58;;;;;;;21.70;4.80;;;;;;;4.15;83.72;100737.13;5011823;28;20021;-73
2022/01/31 09:09:25;;;;;;;28.85;5.03;;;;;;;4.19;83.62;100742.34;5003699;28;20107;-75
2022/01/31 09:11:50;;;;;;;17.30;3.88;;;;;;;4.24;82.50;100748.44;4988197;28;20030;-76
2022/01/31 09:14:16;;;;;;;15.63;3.70;;;;;;;4.21;83.93;100759.69;5012189;28;20036;-76
2022/01/31 09:16:44;;;;;;;12.15;3.30;;;;;;;4.16;84.37;100749.22;4980265;28;20029;-74
2022/01/31 09:19:10;;;;;;;22.85;4.93;;;;;;;4.16;84.70;100754.41;4994415;28;20100;-71
2022/01/31 09:21:35;;;;;;;21.35;4.82;;;;;;;4.15;84.74;100762.19;4994719;28;20060;-73
2022/01/31 09:24:02;;;;;;;19.17;4.55;;;;;;;4.11;84.21;100740.53;4995686;28;20021;-77
2022/01/31 09:26:27;;;;;;;18.48;5.57;;;;;;;4.10;85.09;100769.03;4976166;28;20045;-72
2022/01/31 09:28:54;;;;;;;24.85;4.95;;;;;;;4.06;85.05;100749.09;4994416;28;20034;-76
2022/01/31 09:31:20;;;;;;;34.55;5.82;;;;;;;4.06;84.94;100757.75;4994958;28;20041;-72
2022/01/31 09:33:47;;;;;;;22.70;5.70;;;;;;;4.07;85.52;100753.44;4996311;28;20184;-74
2022/01/31 09:36:12;;;;;;;25.52;5.65;;;;;;;4.08;85.14;100761.25;4975802;28;20077;-77
2022/01/31 09:38:40;;;;;;;25.55;5.50;;;;;;;4.09;84.24;100777.66;4994548;28;20042;-77
2022/01/31 09:41:06;;;;;;;19.77;4.78;;;;;;;4.06;84.92;100788.84;5008487;28;20438;-76
2022/01/31 09:48:33;;;;;;;39.15;7.38;;;;;;;4.06;84.52;100794.03;5009814;28;20120;-76
2022/01/31 09:51:07;;;;;;;35.58;7.70;;;;;;;4.05;85.75;100812.19;5008532;28;20129;-75
2022/01/31 09:53:41;;;;;;;22.33;5.03;;;;;;;4.03;85.37;100803.53;5007025;28;20125;-77
2022/01/31 09:56:12;;;;;;;30.40;6.53;;;;;;;4.05;84.94;100807.88;5011511;28;20533;-76
2022/01/31 09:58:39;;;;;;;39.45;6.72;;;;;;;4.08;84.83;100789.78;5010715;28;20065;-79
2022/01/31 10:01:08;;;;;;;29.70;5.22;;;;;;;4.06;85.34;100813.94;5009901;28;20076;-75
2022/01/31 10:03:59;;;;;;;27.83;5.20;;;;;;;4.08;85.82;100828.66;4988532;28;20031;-77
2022/01/31 10:06:26;;;;;;;;;;;;;;;4.07;85.56;100842.47;5016217;28;20028;-76
2022/01/31 10:09:19;;;;;;;24.25;4.80;;;;;;;4.02;85.53;100844.13;5003274;28;20442;-78
2022/01/31 10:11:50;;;;;;;19.85;5.82;;;;;;;3.98;86.40;100843.22;5008436;28;20073;-79
2022/01/31 10:17:11;;;;;;;27.20;6.25;;;;;;;3.93;85.85;100844.84;5005000;28;20500;-77
2022/01/31 10:19:43;;;;;;;26.70;6.50;;;;;;;3.96;86.10;100850.06;5009945;28;20845;-75
2022/01/31 10:22:11;;;;;;;36.47;9.55;;;;;;;3.98;86.09;100850.13;5009263;28;20030;-80
2022/01/31 10:24:41;;;;;;;36.30;8.70;;;;;;;4.01;85.46;100855.34;5025873;28;20317;-77
2022/01/31 10:27:29;;;;;;;36.58;8.77;;;;;;;4.05;85.15;100864.94;5011224;28;20033;-77
2022/01/31 10:30:35;;;;;;;34.72;7.95;;;;;;;4.15;84.61;100878.88;5010396;28;20515;-74
2022/01/31 10:33:01;;;;;;;42.08;9.65;;;;;;;4.11;84.51;100880.59;4993671;28;20030;-77
2022/01/31 10:35:31;;;;;;;35.83;9.43;;;;;;;4.13;84.17;100865.91;4994272;28;20046;-77
2022/01/31 10:38:08;;;;;;;28.35;6.95;;;;;;;4.17;83.14;100869.44;5010555;28;20065;-76
2022/01/31 10:44:25;;;;;;;36.80;9.88;;;;;;;4.16;83.34;100902.25;5010725;28;20572;-81
2022/01/31 10:54:11;;;;;;;40.00;9.33;;;;;;;4.24;82.91;100917.06;5010905;28;20124;-73
2022/01/31 10:56:48;;;;;;;44.45;9.15;;;;;;;4.23;83.22;100910.16;5010572;28;20018;-75
2022/01/31 10:59:24;;;;;;;52.88;10.18;;;;;;;4.20;82.79;100895.41;5008659;28;20037;-77
2022/01/31 11:01:54;;;;;;;34.30;7.78;;;;;;;4.22;83.27;100903.22;5021989;28;20049;-78
2022/01/31 11:04:21;;;;;;;32.35;7.03;;;;;;;4.24;82.14;100901.50;5026462;28;20136;-78
2022/01/31 11:06:56;;;;;;;33.75;8.23;;;;;;;4.24;82.17;100910.16;4993104;28;20282;-78
2022/01/31 11:09:24;;;;;;;31.70;7.68;;;;;;;4.26;82.12;100930.94;5007489;28;20029;-76
2022/01/31 11:11:51;;;;;;;29.65;7.65;;;;;;;4.21;82.70;100893.69;4993901;28;20478;-72
2022/01/31 11:14:20;;;;;;;31.50;7.63;;;;;;;4.21;82.90;100935.19;4992491;28;20038;-80
2022/01/31 11:16:47;;;;;;;33.83;8.43;;;;;;;4.16;84.11;100945.47;4990244;28;20430;-82
2022/01/31 11:19:22;;;;;;;48.10;8.20;;;;;;;4.11;83.47;100923.81;4974871;28;20116;-76
2022/01/31 11:21:51;;;;;;;41.97;9.32;;;;;;;4.06;84.91;100954.81;5008115;28;20038;-78
2022/01/31 11:24:25;;;;;;;39.72;8.40;;;;;;;4.02;85.19;100947.84;4992892;28;20041;-80
2022/01/31 11:26:56;;;;;;;31.88;8.18;;;;;;;4.01;85.59;100961.69;5020720;28;20385;-79
2022/01/31 11:29:21;;;;;;;;;;;;;;;4.01;84.96;100956.50;5010232;28;20431;-77
2022/01/31 11:31:47;;;;;;;32.20;6.75;;;;;;;3.95;84.34;100953.78;5009751;28;19995;-80
2022/01/31 11:34:13;;;;;;;31.10;6.50;;;;;;;3.96;84.73;100934.78;5009134;28;20038;-75
2022/01/31 11:36:40;;;;;;;43.05;9.40;;;;;;;3.94;85.57;100965.00;4993891;28;20026;-75
2022/01/31 11:39:10;;;;;;;35.33;8.05;;;;;;;3.95;84.97;100961.56;5001335;28;20029;-75
2022/01/31 11:41:43;;;;;;;26.35;7.25;;;;;;;3.93;85.88;100969.31;5008802;28;20044;-77
2022/01/31 11:44:27;;;;;;;31.73;7.28;;;;;;;3.94;85.66;100965.88;5006056;28;20048;-77
2022/01/31 11:46:55;;;;;;;36.95;8.55;;;;;;;3.91;85.96;100964.97;5003313;28;20641;-78
2022/01/31 11:49:22;;;;;;;33.13;7.05;;;;;;;3.88;87.22;100968.38;5008841;28;20034;-77
2022/01/31 11:52:05;;;;;;;36.42;8.75;;;;;;;3.90;87.04;100973.56;5009282;28;20116;-78
2022/01/31 11:54:30;;;;;;;26.95;7.60;;;;;;;3.90;86.76;100986.53;5004510;28;20037;-77